• Join FlightAware (Why Join?)
  • Login
  • US Flag 
12:57PM EDT


 

Airport Tracker/Info


-or-


 

Live Flight TrackerFlight Track Log ✈ SWG682 ✈ 21-Apr-2013 ✈ CYYZ - MUVR / VRA

Flight Track Log - Related Links

Times and Time Zones

All times are in EDT time to prevent confusion due to time zone crossing. See the SWG682 flight status page for this flight to view local times or setup timezone preferences in your user account.

Time Position Orientation Groundspeed Altitude Reporting Facility
EDT Latitude Longitude Course Direction KTS MPH feet Rate Location/Type
03:39PM 43.6960 -79.5730 56° Northeast 183 211 1,500  Level FlightAware
03:40PM 43.7160 -79.5440 46° Northeast 224 258 2,200 1,800 Climbing FlightAware
03:40PM 43.7340 -79.5180 46° Northeast 243 280 3,200 2,460 Climbing FlightAware
03:41PM 43.7540 -79.4790 55° Northeast 261 300 4,500 1,800 Climbing FlightAware
03:41PM 43.7480 -79.4390 102° East 265 305 4,900 1,200 Climbing FlightAware
03:41PM 43.7340 -79.4220 139° Southeast 262 302 5,300 2,400 Climbing FlightAware
03:42PM 43.7220 -79.4180 166° South 262 302 5,900 3,000 Climbing FlightAware
03:42PM 43.6990 -79.4250 192° South 267 307 6,800 2,880 Climbing FlightAware
03:42PM 43.6690 -79.4410 201° Southwest 272 313 8,100 3,000 Climbing FlightAware
03:43PM 43.6350 -79.4650 207° Southwest 280 322 9,600 1,920 Climbing FlightAware
03:44PM 43.5850 -79.5020 208° Southwest 328 377 10,400 1,800 Climbing FlightAware
03:44PM 43.5290 -79.5430 208° Southwest 347 399 12,000 2,520 Climbing FlightAware
03:45PM 43.4660 -79.5890 208° Southwest 355 409 14,000 2,520 Climbing FlightAware
03:46PM 43.4060 -79.6330 208° Southwest 365 420 15,600 2,400 Climbing FlightAware
03:46PM 43.3370 -79.6820 207° Southwest 376 433 17,400 2,220 Climbing FlightAware
03:47PM 43.2700 -79.7050 194° South 392 451 18,800 2,160 Climbing FlightAware
03:48PM 43.1870 -79.7210 188° South 399 459 20,500 2,160 Climbing FlightAware
03:48PM 43.1150 -79.7340 188° South 403 464 21,900 1,860 Climbing FlightAware
03:49PM 43.0410 -79.7480 188° South 410 472 23,000 1,800 Climbing FlightAware
03:50PM 42.9490 -79.7660 188° South 414 476 24,500 1,800 Climbing FlightAware
03:51PM 42.8720 -79.7840 190° South 418 481 25,600 1,500 Climbing FlightAware
03:51PM 42.7860 -79.8020 189° South 425 489 26,700 1,380 Climbing FlightAware
03:52PM 42.7080 -79.8190 189° South 430 495 27,600 1,320 Climbing FlightAware
03:53PM 42.6280 -79.8360 189° South 433 498 28,500 1,680 Climbing FlightAware
03:53PM 42.5400 -79.8550 189° South 421 484 30,000 1,860 Climbing FlightAware
03:54PM 42.4790 -79.8680 189° South 415 478 31,000 1,620 Climbing FlightAware
03:55PM 42.3850 -79.8880 189° South 408 470 32,300 1,440 Climbing FlightAware
03:55PM 42.3200 -79.9020 189° South 405 466 33,100 1,080 Climbing FlightAware
03:56PM 42.2370 -79.9190 189° South 405 466 33,800 900 Climbing FlightAware
03:57PM 42.1530 -79.9370 189° South 407 468 34,500 840 Climbing FlightAware
03:58PM 42.0760 -79.9530 189° South 409 471 35,000 840 Climbing FlightAware
03:58PM 42.0210 -79.9650 189° South 409 471 35,500 840 Climbing FlightAware
03:59PM 41.9460 -79.9810 189° South 409 471 36,000 300 Climbing FlightAware
03:59PM 41.8690 -79.9970 189° South 412 474 36,000  Level FlightAware
04:00PM 41.7890 -80.0130 188° South 410 472 36,000  Level FlightAware
04:01PM 41.7040 -80.0310 189° South 410 472 36,000  Level FlightAware
04:02PM 41.6280 -80.0470 189° South 409 471 36,000  Level FlightAware
04:02PM 41.5620 -80.0610 189° South 408 470 36,000  Level FlightAware
04:03PM 41.4700 -80.0800 189° South 406 467 36,000  Level FlightAware
04:03PM 41.4340 -80.0870 188° South 406 467 36,000  Level FlightAware
04:04PM 41.3410 -80.1060 189° South 406 467 36,000  Level FlightAware
04:05PM 41.2320 -80.1150 184° South 418 481 36,000  Level FlightAware
04:06PM 41.1570 -80.1040 174° South 418 481 36,000  Level FlightAware
04:06PM 41.0670 -80.0900 173° South 417 480 36,000  Level FlightAware
04:07PM 40.9930 -80.0790 174° South 417 480 36,000  Level FlightAware
04:08PM 40.9040 -80.0650 173° South 416 479 36,000  Level FlightAware
04:09PM 40.8300 -80.0550 174° South 414 476 36,000  Level FlightAware
04:09PM 40.7540 -80.0450 174° South 412 474 36,000  Level FlightAware
04:10PM 40.6680 -80.0320 173° South 410 472 36,000  Level FlightAware
04:11PM 40.5930 -80.0220 174° South 408 470 36,000  Level FlightAware
04:11PM 40.5100 -80.0100 174° South 406 467 36,000  Level FlightAware
04:12PM 40.4440 -80.0020 175° South 403 464 36,000  Level FlightAware
04:13PM 40.3650 -80.0220 191° South 384 442 36,000  Level FlightAware
04:13PM 40.2890 -80.0560 199° South 385 443 36,000  Level FlightAware
04:14PM 40.2200 -80.0870 199° South 387 445 36,000  Level FlightAware
04:15PM 40.1460 -80.1190 198° South 388 447 36,000  Level FlightAware
04:15PM 40.0890 -80.1440 199° South 388 447 36,000  Level FlightAware
04:16PM 39.9910 -80.1860 198° South 387 445 36,000  Level FlightAware
04:17PM 39.9110 -80.2220 199° South 388 447 36,000  Level FlightAware
04:18PM 39.8670 -80.2400 197° South 388 447 36,000  Level FlightAware
04:19PM 39.7710 -80.2830 199° South 390 449 36,000  Level FlightAware
04:19PM 39.6940 -80.3170 199° South 389 448 36,000  Level FlightAware
04:20PM 39.6430 -80.3390 198° South 388 447 36,000  Level FlightAware
04:21PM 39.5550 -80.3770 198° South 387 445 36,000  Level FlightAware
04:21PM 39.4850 -80.4060 198° South 386 444 36,000  Level FlightAware
04:22PM 39.4170 -80.4360 199° South 385 443 36,000  Level FlightAware
04:23PM 39.3400 -80.4690 198° South 383 441 36,000  Level FlightAware
04:23PM 39.2770 -80.4960 198° South 382 440 36,000  Level FlightAware
04:24PM 39.2010 -80.5290 199° South 380 437 36,000  Level FlightAware
04:25PM 39.1300 -80.5600 199° South 379 436 36,000  Level FlightAware
04:26PM 39.0640 -80.5980 204° Southwest 382 440 36,000  Level FlightAware
04:26PM 38.9980 -80.6360 204° Southwest 382 440 36,000  Level FlightAware
04:27PM 38.9250 -80.6790 205° Southwest 382 440 36,000  Level FlightAware
04:28PM 38.8630 -80.7160 205° Southwest 381 438 36,000  Level FlightAware
04:28PM 38.7900 -80.7590 205° Southwest 381 438 36,000  Level FlightAware
04:29PM 38.7270 -80.7960 205° Southwest 381 438 36,000  Level FlightAware
04:30PM 38.6540 -80.8400 205° Southwest 381 438 36,000  Level FlightAware
04:30PM 38.5900 -80.8780 205° Southwest 382 440 36,000  Level FlightAware
04:31PM 38.5180 -80.9200 205° Southwest 383 441 36,000  Level FlightAware
04:32PM 38.4530 -80.9580 205° Southwest 385 443 36,000  Level FlightAware
04:33PM 38.3850 -80.9830 196° South 395 455 36,000  Level FlightAware
04:33PM 38.3200 -80.9980 190° South 395 455 36,000  Level FlightAware
04:34PM 38.2600 -81.0120 190° South 394 453 36,000  Level FlightAware
04:34PM 38.1760 -81.0320 191° South 394 453 36,000  Level FlightAware
04:35PM 38.1050 -81.0480 190° South 393 452 36,000  Level FlightAware
04:36PM 38.0260 -81.0670 191° South 392 451 36,000  Level FlightAware
04:37PM 37.9560 -81.0830 190° South 390 449 36,000  Level FlightAware
04:37PM 37.8850 -81.0990 190° South 389 448 36,000  Level FlightAware
04:38PM 37.8040 -81.1180 190° South 388 447 36,000  Level FlightAware
04:39PM 37.7050 -81.1220 182° South 396 456 36,000  Level FlightAware
04:40PM 37.6310 -81.1210 179° South 394 453 36,000  Level FlightAware
04:40PM 37.5490 -81.1190 179° South 391 450 36,000  Level FlightAware
04:41PM 37.4890 -81.1180 179° South 390 449 36,000  Level FlightAware
04:42PM 37.4120 -81.1160 179° South 388 447 36,000  Level FlightAware
04:42PM 37.3510 -81.1130 178° South 388 447 36,000  Level FlightAware
04:43PM 37.2900 -81.1100 178° South 388 447 36,000  Level FlightAware
04:44PM 37.2130 -81.1070 178° South 388 447 36,000  Level FlightAware
04:44PM 37.1520 -81.1040 178° South 388 447 36,000  Level FlightAware
04:45PM 37.0910 -81.1020 179° South 388 447 36,000  Level FlightAware
04:46PM 37.0300 -81.0990 178° South 388 447 36,000  Level FlightAware
04:47PM 36.8709 -81.1067 182° South 391 450 36,000  Level FlightAware ADS-B
04:49PM 36.6556 -81.1029 179° South 391 450 36,000  Level FlightAware ADS-B
04:49PM 36.5992 -81.1019 179° South 392 451 36,000  Level FlightAware ADS-B
04:50PM 36.4575 -81.0992 179° South 391 450 36,000  Level FlightAware ADS-B
04:51PM 36.4011 -81.0982 179° South 389 448 36,000  Level FlightAware ADS-B
04:51PM 36.3459 -81.0972 179° South 388 447 36,000  Level FlightAware ADS-B
04:52PM 36.2836 -81.0962 179° South 387 445 36,000  Level FlightAware ADS-B
04:54PM 36.0470 -81.0920 179° South 385 443 36,000  Level FlightAware
04:55PM 35.9410 -81.0890 179° South 385 443 36,000  Level FlightAware
04:56PM 35.8420 -81.0870 179° South 386 444 36,000  Level FlightAware
04:57PM 35.7660 -81.0870 180° South 387 445 36,000  Level FlightAware
04:58PM 35.6840 -81.0850 179° South 387 445 36,000  Level FlightAware
04:58PM 35.6020 -81.0840 179° South 388 447 36,000  Level FlightAware
04:59PM 35.5330 -81.0830 179° South 389 448 36,000  Level FlightAware
05:00PM 35.4510 -81.0810 179° South 390 449 36,000  Level FlightAware
05:00PM 35.3878 -81.0804 180° South 390 449 36,000  Level FlightAware ADS-B
05:01PM 35.3325 -81.0794 179° South 391 450 36,000  Level FlightAware ADS-B
05:01PM 35.2689 -81.0782 179° South 392 451 36,000  Level FlightAware ADS-B
05:03PM 35.1530 -81.0760 179° South 393 452 36,000  Level FlightAware
05:03PM 35.0740 -81.0750 179° South 393 452 36,000  Level FlightAware
05:04PM 34.9970 -81.0730 179° South 392 451 36,000  Level FlightAware
05:05PM 34.9270 -81.0720 179° South 392 451 36,000  Level FlightAware
05:09PM 34.4490 -81.0630 179° South 395 455 36,000  Level FlightAware
05:10PM 34.3460 -81.0610 179° South 397 457 36,000  Level FlightAware
05:11PM 34.3610 -81.0620 357° North 399 459 36,000  Level FlightAware
05:11PM 34.2069 -81.0597 357° North 390 449 36,000  Level Jacksonville Center
05:12PM 34.0944 -81.0594 180° South 390 449 36,000  Level Jacksonville Center
05:13PM 33.9836 -81.0567 179° South 390 449 36,000  Level Jacksonville Center
05:14PM 33.8731 -81.0567 180° South 397 457 36,000  Level Jacksonville Center
05:15PM 33.7606 -81.0614 182° South 404 465 36,000  Level Jacksonville Center
05:16PM 33.6667 -81.0733 186° South 399 459 36,000  Level Jacksonville Center
05:17PM 33.5522 -81.0806 183° South 399 459 36,000  Level Jacksonville Center
05:18PM 33.4458 -81.0903 184° South 399 459 36,000  Level Jacksonville Center
05:19PM 33.3353 -81.1000 184° South 404 465 36,000 -60 Level Jacksonville Center
05:20PM 33.2250 -81.1122 185° South 404 465 35,900  Descending Jacksonville Center
05:26PM 32.5850 -81.1630 185° South 403 464 36,000  Climbing FlightAware
05:27PM 32.5210 -81.1700 185° South 403 464 36,000  Level FlightAware
05:28PM 32.4580 -81.1760 185° South 403 464 36,000  Level FlightAware
05:28PM 32.3070 -81.1860 183° South 36,000  Level FlightAware
05:29PM 32.2120 -81.1930 184° South 398 458 36,000  Level FlightAware
05:30PM 32.0930 -81.1980 182° South 405 466 36,000  Level FlightAware
05:31PM 32.0240 -81.1950 178° South 404 465 36,000  Level FlightAware
05:32PM 31.9580 -81.1930 179° South 403 464 36,000  Level FlightAware
05:33PM 31.8080 -81.1890 179° South 401 461 36,000  Level FlightAware
05:33PM 31.7480 -81.1870 178° South 400 460 36,000  Level FlightAware
05:34PM 31.6510 -81.1840 178° South 398 458 36,000  Level FlightAware
05:35PM 31.5770 -81.1810 178° South 395 455 36,000  Level FlightAware
05:36PM 31.5160 -81.1790 178° South 395 455 36,000  Level FlightAware
05:36PM 31.4220 -81.1770 179° South 391 450 36,000  Level FlightAware
05:37PM 31.3610 -81.1740 178° South 391 450 36,000  Level FlightAware
05:38PM 31.2990 -81.1720 178° South 391 450 36,000  Level FlightAware
05:38PM 31.2380 -81.1690 178° South 391 450 36,000  Level FlightAware
05:39PM 31.1610 -81.1660 178° South 391 450 36,000  Level FlightAware
05:40PM 31.0990 -81.1640 178° South 391 450 36,000  Level FlightAware
05:41PM 31.0380 -81.1610 178° South 391 450 36,000  Level FlightAware
05:41PM 30.9770 -81.1590 178° South 391 450 36,000  Level FlightAware
05:42PM 30.9150 -81.1560 178° South 391 450 36,000  Level FlightAware
05:43PM 30.8380 -81.1530 178° South 391 450 36,000  Level FlightAware
05:43PM 30.7770 -81.1500 178° South 391 450 36,000  Level FlightAware
05:44PM 30.7150 -81.1480 178° South 391 450 36,000  Level FlightAware
05:45PM 30.6540 -81.1450 178° South 391 450 36,000  Level FlightAware
05:46PM 30.5770 -81.1420 178° South 391 450 36,000  Level FlightAware
05:46PM 30.5150 -81.1400 178° South 391 450 36,000 -120 Level FlightAware
05:46PM 30.3006 -81.1433 178° South 404 465 35,900 -120 Descending Jacksonville Center
05:47PM 30.1856 -81.1408 179° South 404 465 35,900  Level Jacksonville Center
05:48PM 30.0686 -81.1358 178° South 409 471 36,000  Climbing Jacksonville Center
05:49PM 29.9536 -81.1331 179° South 409 471 35,900 240 Descending Jacksonville Center
05:56PM 29.2530 -81.0950 179° South 428 493 38,000 300 Climbing FlightAware
05:56PM 29.1510 -81.0510 159° South 442 509 38,000  Level FlightAware
06:00PM 28.6540 -80.8530 161° South 451 519 38,000  Level FlightAware
06:01PM 28.5790 -80.8250 162° South 455 524 38,000  Level FlightAware
06:02PM 28.4960 -80.7940 162° South 455 524 38,000  Level FlightAware
06:03PM 28.4070 -80.7610 162° South 456 525 38,000  Level FlightAware
06:03PM 28.3340 -80.7340 162° South 444 511 38,000  Level FlightAware
06:04PM 28.2120 -80.6880 162° South 448 516 38,000  Level FlightAware
06:05PM 28.1350 -80.6590 162° South 449 517 38,000  Level FlightAware
06:05PM 28.0650 -80.6330 162° South 449 517 38,000  Level FlightAware
06:06PM 27.9700 -80.5980 162° South 441 507 38,000  Level FlightAware
06:07PM 27.9000 -80.5720 162° South 439 505 38,000  Level FlightAware
06:08PM 27.8020 -80.5360 162° South 444 511 38,000  Level FlightAware
06:08PM 27.7220 -80.5060 162° South 454 522 38,000  Level FlightAware
06:09PM 27.6340 -80.5000 177° South 439 505 38,000  Level FlightAware
06:10PM 27.5840 -80.5110 191° South 411 473 38,000  Level FlightAware
06:10PM 27.5080 -80.5280 191° South 414 476 38,000  Level FlightAware
06:11PM 27.4240 -80.5480 192° South 412 474 38,000  Level FlightAware
06:12PM 27.3590 -80.5820 205° Southwest 395 455 38,000  Level FlightAware
06:12PM 27.2920 -80.6160 204° Southwest 391 450 38,000  Level FlightAware
06:13PM 27.2260 -80.6500 205° Southwest 390 449 38,000  Level FlightAware
06:14PM 27.1500 -80.6880 204° Southwest 398 458 38,000  Level FlightAware
06:14PM 27.0650 -80.7280 203° Southwest 403 464 38,000  Level FlightAware
06:15PM 27.0070 -80.7540 202° Southwest 405 466 38,000  Level FlightAware
06:16PM 26.9430 -80.7830 202° Southwest 407 468 38,000  Level FlightAware
06:17PM 26.8550 -80.8200 201° Southwest 410 472 38,000  Level FlightAware
06:17PM 26.7780 -80.8470 197° South 405 466 38,000  Level FlightAware
06:18PM 26.6980 -80.8750 197° South 402 463 38,000  Level FlightAware
06:18PM 26.6420 -80.8950 198° South 409 471 38,000  Level FlightAware
06:19PM 26.5810 -80.9170 198° South 406 467 38,000  Level FlightAware
06:20PM 26.4980 -80.9460 197° South 408 470 38,000  Level FlightAware
06:20PM 26.4290 -80.9710 198° South 404 465 38,000  Level FlightAware
06:21PM 26.3400 -80.9870 189° South 421 484 38,000  Level FlightAware
06:22PM 26.2600 -80.9920 183° South 422 486 38,000 -120 Level FlightAware
06:23PM 26.1700 -80.9980 183° South 433 498 37,900 -360 Descending FlightAware
06:23PM 26.0880 -81.0040 184° South 438 504 37,500 -540 Descending FlightAware
06:24PM 26.0080 -81.0090 183° South 447 514 37,200 -360 Descending FlightAware
06:25PM 25.9130 -81.0150 183° South 451 519 37,000 -180 Descending FlightAware
06:25PM 25.8290 -81.0210 184° South 449 517 37,000  Level FlightAware
06:26PM 25.7370 -81.0270 183° South 438 504 37,000  Level FlightAware
06:27PM 25.6530 -81.0330 184° South 437 503 37,000  Level FlightAware
06:27PM 25.5710 -81.0390 184° South 437 503 37,000  Level FlightAware
06:28PM 25.4790 -81.0450 183° South 437 503 37,000  Level FlightAware
06:29PM 25.3980 -81.0500 183° South 435 501 37,000  Level FlightAware
06:30PM 25.3040 -81.0560 183° South 435 501 37,000  Level FlightAware
06:30PM 25.2210 -81.0620 184° South 436 502 37,000  Level FlightAware
06:31PM 25.1390 -81.0670 183° South 438 504 37,000 -360 Level FlightAware
06:32PM 25.0460 -81.0730 183° South 447 514 36,500 -780 Descending FlightAware
06:32PM 24.9620 -81.0790 184° South 454 522 35,900 -1,020 Descending FlightAware
06:33PM 24.8770 -81.0840 183° South 454 522 35,200 -660 Descending FlightAware
06:34PM 24.7840 -81.0910 184° South 449 517 35,000 -360 Descending FlightAware
06:34PM 24.7020 -81.0970 184° South 439 505 34,700 -1,920 Descending FlightAware
06:35PM 24.6090 -81.1110 188° South 455 524 32,300 -3,060 Descending FlightAware
06:36PM 24.5240 -81.1240 188° South 453 521 30,400 -2,580 Descending FlightAware
06:37PM 24.4430 -81.1360 188° South 442 509 28,900 -2,520 Descending FlightAware
06:37PM 24.3520 -81.1520 189° South 441 507 26,900 -2,400 Descending FlightAware
06:38PM 24.2780 -81.1670 190° South 427 491 25,500 -1,980 Descending FlightAware
06:39PM 24.1730 -81.1860 189° South 426 490 23,800 -1,620 Descending FlightAware
06:40PM 24.0740 -81.2030 189° South 408 470 22,700 -660 Descending FlightAware
06:41PM 23.9950 -81.2170 189° South 408 470 22,700  Level FlightAware
06:41PM 23.9320 -81.2280 189° South 408 470 22,700  Level FlightAware
06:42PM 23.8680 -81.2390 189° South 408 470 22,700  Level FlightAware
06:43PM 23.8050 -81.2500 189° South 408 470 22,700  Level FlightAware
06:43PM 23.7420 -81.2610 189° South 408 470 22,700  Level FlightAware
06:48PM 23.2839 -81.2830 205° Southwest  Level FlightAware Approximate
06:49PM 23.1772 -81.2879 190° South  Level FlightAware Approximate
06:50PM 23.1167 -81.3000 190° South  Level FlightAware Approximate
06:51PM 23.0576 -81.3972 190° South  Level Estimated
06:52PM 23.0345 -81.4353 190° South  Level Estimated
06:53PM 23.0344 -81.4353 190° South  Level Estimated
06:54PM 23.0345 -81.4353 190° South  Level Estimated
06:55PM 23.0344 -81.4353 190° South  Level Estimated
06:56PM 23.0345 -81.4353 190° South  Level Estimated
06:57PM 23.0344 -81.4353 190° South  Level Estimated
06:58PM 23.0345 -81.4353 190° South  Level Estimated
06:59PM 23.0344 -81.4353 190° South  Level Estimated
07:00PM 23.0345 -81.4353 190° South  Level Estimated
07:01PM 23.0344 -81.4353 190° South  Level Estimated
07:02PM 23.0345 -81.4353 190° South  Level Estimated
07:03PM 23.0344 -81.4353 190° South  Level Estimated
07:04PM 23.0345 -81.4353 190° South  Level Estimated
07:05PM 23.0344 -81.4353 190° South  Level Estimated
07:06PM 23.0345 -81.4353 190° South  Level Estimated
07:07PM 23.0344 -81.4353 190° South  Level Estimated
07:08PM 23.0345 -81.4353 190° South  Level Estimated
07:09PM 23.0344 -81.4353 190° South  Level Estimated
07:10PM 23.0345 -81.4353 190° South  Level Estimated